createdAt,value
2018-04-30T04:10:01.652Z,5
2018-04-30T04:10:27.142Z,5
2018-04-30T04:10:52.636Z,5
2018-04-30T04:11:18.125Z,5
2018-04-30T04:11:43.627Z,5
2018-04-30T04:12:09.166Z,5
2018-04-30T04:12:34.688Z,5
2018-04-30T04:13:00.175Z,5
2018-04-30T04:13:25.649Z,5
2018-04-30T04:13:51.141Z,5
2018-04-30T04:14:16.617Z,5
2018-04-30T04:14:42.117Z,5
2018-04-30T04:15:07.588Z,5
2018-04-30T04:15:33.110Z,5
2018-04-30T04:15:58.611Z,5
2018-04-30T04:16:24.104Z,5
2018-04-30T04:16:49.646Z,5
2018-04-30T04:17:15.132Z,5
2018-04-30T04:17:40.603Z,5
2018-04-30T04:18:06.085Z,5
2018-04-30T04:18:31.575Z,5
2018-04-30T04:18:57.097Z,5
2018-04-30T04:19:22.587Z,5
2018-04-30T04:19:48.083Z,5
2018-04-30T04:20:13.579Z,5
2018-04-30T04:20:39.454Z,5
2018-04-30T04:21:04.662Z,5
2018-04-30T04:21:30.107Z,5
2018-04-30T04:21:55.604Z,5
2018-04-30T04:22:21.097Z,10
2018-04-30T04:22:46.600Z,10
2018-04-30T04:23:12.063Z,10
2018-04-30T04:23:37.540Z,10
2018-04-30T04:24:03.025Z,10
2018-04-30T04:24:28.522Z,10
2018-04-30T04:24:54.013Z,10
2018-04-30T04:25:19.470Z,10
2018-04-30T04:25:44.957Z,10
2018-04-30T04:26:10.452Z,10
2018-04-30T04:26:35.947Z,10
2018-04-30T04:27:01.448Z,10
2018-04-30T04:27:26.940Z,10
2018-04-30T04:27:52.463Z,10
2018-04-30T04:28:17.974Z,15
2018-04-30T04:29:47.081Z,15
2018-04-30T04:30:12.554Z,15
2018-04-30T04:30:38.103Z,15
2018-04-30T04:31:03.549Z,15
2018-04-30T04:31:28.978Z,15
2018-04-30T04:31:54.476Z,15
2018-04-30T04:32:19.938Z,15
2018-04-30T04:32:45.402Z,15
2018-04-30T04:33:10.835Z,15
2018-04-30T04:33:36.556Z,20
2018-04-30T04:34:02.068Z,20
2018-04-30T04:34:27.509Z,20
2018-04-30T04:34:53.009Z,20
2018-04-30T04:35:18.521Z,20
2018-04-30T04:35:44.014Z,20
2018-04-30T04:36:09.498Z,15
2018-04-30T04:36:34.972Z,20
2018-04-30T04:37:00.439Z,15
2018-04-30T04:37:25.878Z,15
2018-04-30T04:37:51.336Z,15
2018-04-30T04:38:16.818Z,15
2018-04-30T04:38:42.304Z,15
2018-04-30T04:39:07.749Z,20
2018-04-30T04:39:33.235Z,20
2018-04-30T04:39:58.679Z,20
2018-04-30T04:40:24.185Z,20
2018-04-30T04:40:49.664Z,20
2018-04-30T04:41:15.161Z,20
2018-04-30T04:41:40.721Z,20
2018-04-30T04:42:06.105Z,25
2018-04-30T04:42:31.604Z,25
2018-04-30T04:42:57.102Z,30
2018-04-30T04:43:22.709Z,35
2018-04-30T04:43:48.238Z,40
2018-04-30T04:44:13.730Z,40
2018-04-30T04:44:39.256Z,35
2018-04-30T04:45:04.765Z,40
2018-04-30T04:45:30.222Z,35
2018-04-30T04:45:55.724Z,30
2018-04-30T04:46:21.203Z,30
2018-04-30T04:46:46.742Z,30
2018-04-30T04:47:12.287Z,30
2018-04-30T04:47:38.005Z,35
2018-04-30T04:48:03.550Z,40
2018-04-30T04:48:29.272Z,45
2018-04-30T04:48:54.786Z,40
2018-04-30T04:49:20.304Z,40
2018-04-30T04:49:45.907Z,35
2018-04-30T04:50:11.462Z,30
2018-04-30T04:50:37.001Z,25
2018-04-30T04:51:02.553Z,30
2018-04-30T04:51:28.041Z,30
2018-04-30T04:51:53.530Z,30
2018-04-30T04:52:19.077Z,30
2018-04-30T04:52:44.641Z,35
2018-04-30T04:53:10.333Z,35
2018-04-30T04:53:35.853Z,30
2018-04-30T04:54:01.491Z,30
2018-04-30T04:54:27.005Z,35
2018-04-30T04:54:52.612Z,40
2018-04-30T04:55:18.200Z,40
2018-04-30T04:55:43.769Z,35
2018-04-30T04:56:09.189Z,35
2018-04-30T04:56:34.695Z,35
2018-04-30T04:57:00.180Z,30
2018-04-30T04:57:25.650Z,30
2018-04-30T04:57:51.281Z,35
2018-04-30T04:58:16.779Z,40
2018-04-30T04:58:42.233Z,40
2018-04-30T04:59:07.737Z,45
2018-04-30T05:00:21.041Z,35
2018-04-30T05:00:46.547Z,30
2018-04-30T05:01:12.048Z,30
2018-04-30T05:01:37.541Z,35
2018-04-30T05:02:03.056Z,35
2018-04-30T05:02:28.549Z,35
2018-04-30T05:02:54.080Z,35
2018-04-30T05:03:19.562Z,50
2018-04-30T05:03:45.083Z,50
2018-04-30T05:04:10.635Z,45
2018-04-30T05:04:36.088Z,50
2018-04-30T05:05:01.575Z,50
2018-04-30T05:05:27.084Z,50
2018-04-30T05:05:52.583Z,50
2018-04-30T05:06:18.126Z,50
2018-04-30T05:06:43.638Z,45
2018-04-30T05:07:09.139Z,40
2018-04-30T05:07:34.659Z,45
2018-04-30T05:08:00.144Z,45
2018-04-30T05:08:25.673Z,40
2018-04-30T05:08:51.133Z,40
2018-04-30T05:09:16.632Z,40
2018-04-30T05:09:42.103Z,40
2018-04-30T05:10:07.616Z,40
2018-04-30T05:10:33.092Z,40
2018-04-30T05:10:58.690Z,40
2018-04-30T05:11:24.062Z,45
2018-04-30T05:11:49.536Z,45
2018-04-30T05:12:15.107Z,40
2018-04-30T05:12:40.583Z,40
2018-04-30T05:13:06.189Z,40
2018-04-30T05:13:31.724Z,35
2018-04-30T05:13:57.196Z,35
2018-04-30T05:14:22.725Z,35
2018-04-30T05:14:48.229Z,40
2018-04-30T05:15:13.710Z,40
2018-04-30T05:15:39.236Z,45
2018-04-30T05:16:04.756Z,50
2018-04-30T05:16:30.232Z,45
2018-04-30T05:16:55.719Z,45
2018-04-30T05:17:21.206Z,40
2018-04-30T05:17:46.675Z,40
2018-04-30T05:18:12.191Z,45
2018-04-30T05:18:37.747Z,40
2018-04-30T05:19:03.198Z,45
2018-04-30T05:19:28.716Z,55
2018-04-30T05:19:54.229Z,50
2018-04-30T05:20:19.886Z,45
2018-04-30T05:20:45.362Z,50
2018-04-30T05:21:11.258Z,50
2018-04-30T05:21:36.936Z,50
2018-04-30T05:22:02.462Z,50
2018-04-30T05:22:27.906Z,55
2018-04-30T05:22:53.588Z,50
2018-04-30T05:23:19.286Z,55
2018-04-30T05:23:44.860Z,55
2018-04-30T05:24:10.348Z,45
2018-04-30T05:24:35.869Z,50
2018-04-30T05:25:01.357Z,50
2018-04-30T05:25:26.850Z,55
2018-04-30T05:25:52.402Z,60
2018-04-30T05:26:18.060Z,55
2018-04-30T05:26:43.552Z,50
2018-04-30T05:27:09.093Z,55
2018-04-30T05:27:34.587Z,60
2018-04-30T05:28:00.091Z,65
2018-04-30T05:28:25.699Z,60
2018-04-30T05:28:51.685Z,65
2018-04-30T05:29:17.147Z,65
2018-04-30T05:29:42.636Z,65
2018-04-30T05:30:08.124Z,65
2018-04-30T05:30:33.658Z,70
2018-04-30T05:30:59.270Z,75
2018-04-30T05:31:24.728Z,65
2018-04-30T05:31:50.199Z,65
2018-04-30T05:32:15.980Z,70
2018-04-30T05:32:41.801Z,70
2018-04-30T05:33:07.442Z,65
2018-04-30T05:33:32.899Z,60
2018-04-30T05:33:58.533Z,55
2018-04-30T05:34:23.940Z,50
2018-04-30T05:34:49.550Z,40
2018-04-30T05:35:15.104Z,40
2018-04-30T05:35:40.733Z,40
2018-04-30T05:36:06.232Z,40
2018-04-30T05:36:31.731Z,40
2018-04-30T05:36:57.227Z,40
2018-04-30T05:37:22.695Z,35
2018-04-30T05:37:48.268Z,35
2018-04-30T05:38:13.838Z,35
2018-04-30T05:38:39.680Z,40
2018-04-30T05:39:05.059Z,40
2018-04-30T05:39:30.561Z,45
2018-04-30T05:39:56.044Z,45
2018-04-30T05:40:21.544Z,50
2018-04-30T05:40:47.002Z,55
2018-04-30T05:41:12.661Z,50
2018-04-30T05:41:38.155Z,45
2018-04-30T05:42:03.755Z,45
2018-04-30T05:42:29.286Z,40
2018-04-30T05:42:54.774Z,45
2018-04-30T05:43:20.259Z,50
2018-04-30T05:43:45.739Z,55
2018-04-30T05:44:11.269Z,60
2018-04-30T05:44:36.756Z,65
2018-04-30T05:45:02.275Z,55
2018-04-30T05:45:27.763Z,55
2018-04-30T05:45:53.261Z,70
2018-04-30T05:46:18.742Z,70
2018-04-30T05:46:44.254Z,65
2018-04-30T05:47:09.797Z,70
2018-04-30T05:47:35.269Z,70
2018-04-30T05:48:00.825Z,70
2018-04-30T05:48:26.297Z,65
2018-04-30T05:48:51.785Z,60
2018-04-30T05:49:17.256Z,55
2018-04-30T05:49:42.762Z,55
2018-04-30T05:50:08.239Z,65
2018-04-30T05:50:33.747Z,60
2018-04-30T05:50:59.242Z,60
2018-04-30T05:51:24.730Z,55
2018-04-30T05:51:50.314Z,50
2018-04-30T05:52:15.795Z,55
2018-04-30T05:52:41.289Z,50
2018-04-30T05:53:06.786Z,50
2018-04-30T05:53:32.281Z,50
2018-04-30T05:53:57.788Z,50
2018-04-30T05:54:23.289Z,45
2018-04-30T05:54:48.808Z,40
2018-04-30T05:55:14.372Z,35
2018-04-30T05:55:39.826Z,35
2018-04-30T05:56:05.324Z,45
2018-04-30T05:56:30.784Z,45
2018-04-30T05:56:56.318Z,40
2018-04-30T05:57:21.831Z,35
2018-04-30T05:57:47.320Z,40
2018-04-30T05:58:12.860Z,40
2018-04-30T05:58:38.355Z,40
2018-04-30T05:59:03.930Z,35
2018-04-30T05:59:29.469Z,40
2018-04-30T05:59:54.972Z,45
2018-04-30T06:00:20.516Z,40
2018-04-30T06:00:45.996Z,35
2018-04-30T06:01:11.532Z,40
2018-04-30T06:01:36.955Z,35
2018-04-30T06:02:02.456Z,40
2018-04-30T06:02:27.975Z,35
2018-04-30T06:02:53.478Z,45
2018-04-30T06:03:18.979Z,40
2018-04-30T06:03:44.475Z,40
2018-04-30T06:04:09.980Z,40
2018-04-30T06:04:35.474Z,40
2018-04-30T06:05:00.955Z,40
2018-04-30T06:05:26.500Z,40
2018-04-30T06:05:52.019Z,40
2018-04-30T06:06:17.599Z,35
2018-04-30T06:06:43.185Z,35
2018-04-30T06:07:08.702Z,35
2018-04-30T06:07:34.180Z,40
2018-04-30T06:07:59.688Z,35
2018-04-30T06:08:25.168Z,35
2018-04-30T06:08:50.648Z,40
2018-04-30T06:09:16.151Z,40
2018-04-30T06:09:41.667Z,40
2018-04-30T06:10:07.198Z,40
2018-04-30T06:10:32.686Z,40
2018-04-30T06:10:58.205Z,45
2018-04-30T06:11:23.698Z,45
2018-04-30T06:11:49.194Z,45
2018-04-30T06:12:14.758Z,45
2018-04-30T06:12:40.195Z,45
2018-04-30T06:13:05.706Z,45
2018-04-30T06:13:31.198Z,40
2018-04-30T06:13:56.708Z,45
2018-04-30T06:14:22.291Z,45
2018-04-30T06:14:47.744Z,50
2018-04-30T06:15:13.234Z,45
2018-04-30T06:15:38.719Z,45
2018-04-30T06:16:04.187Z,45
2018-04-30T06:16:29.682Z,50
2018-04-30T06:16:55.193Z,50
2018-04-30T06:17:20.693Z,45
2018-04-30T06:17:46.161Z,50
2018-04-30T06:18:11.632Z,45
2018-04-30T06:18:37.121Z,45
2018-04-30T06:19:02.581Z,45
2018-04-30T06:19:28.078Z,45
2018-04-30T06:19:53.576Z,40
2018-04-30T06:20:19.059Z,40
2018-04-30T06:20:44.601Z,40
2018-04-30T06:21:10.094Z,40
2018-04-30T06:21:35.551Z,40
2018-04-30T06:22:01.042Z,30
2018-04-30T06:22:26.566Z,40
2018-04-30T06:22:52.084Z,35
2018-04-30T06:23:17.590Z,30
2018-04-30T06:23:43.100Z,35
2018-04-30T06:24:08.628Z,40
2018-04-30T06:24:34.128Z,35
2018-04-30T06:24:59.618Z,35
2018-04-30T06:25:25.120Z,30
2018-04-30T06:25:50.608Z,30
2018-04-30T06:26:16.091Z,30
2018-04-30T06:26:41.643Z,30
2018-04-30T06:27:07.081Z,35
2018-04-30T06:27:32.564Z,30
2018-04-30T06:27:58.053Z,30
2018-04-30T06:28:23.558Z,35
2018-04-30T06:28:49.049Z,35
2018-04-30T06:29:14.540Z,35
2018-04-30T06:29:40.060Z,35
2018-04-30T06:30:05.565Z,35
2018-04-30T06:30:31.052Z,40
2018-04-30T06:30:56.529Z,40
2018-04-30T06:31:22.018Z,40
2018-04-30T06:31:47.509Z,40
2018-04-30T06:32:12.993Z,50
2018-04-30T06:32:38.490Z,50
2018-04-30T06:33:04.002Z,40
2018-04-30T06:33:29.466Z,40
2018-04-30T06:33:55.024Z,35
2018-04-30T06:34:20.512Z,50
2018-04-30T06:34:45.979Z,55
2018-04-30T06:35:11.466Z,50
2018-04-30T06:35:36.989Z,55
2018-04-30T06:36:02.485Z,55
2018-04-30T06:36:28.014Z,70
2018-04-30T06:36:53.509Z,55
2018-04-30T06:37:18.993Z,65
2018-04-30T06:37:44.472Z,65
2018-04-30T06:38:09.950Z,75
2018-04-30T06:38:35.413Z,55
2018-04-30T06:39:00.904Z,50
2018-04-30T06:39:26.411Z,50
2018-04-30T06:39:51.905Z,50
2018-04-30T06:40:17.397Z,40
2018-04-30T06:40:42.928Z,45
2018-04-30T06:41:08.469Z,35
2018-04-30T06:42:37.057Z,35
2018-04-30T06:43:02.563Z,45
2018-04-30T06:43:28.069Z,55
2018-04-30T06:43:53.569Z,45
2018-04-30T06:44:19.057Z,40
2018-04-30T06:44:44.567Z,40
2018-04-30T06:45:10.054Z,45
2018-04-30T06:45:35.543Z,50
2018-04-30T06:46:01.042Z,50
2018-04-30T06:46:26.510Z,50
2018-04-30T06:46:51.994Z,50
2018-04-30T06:47:17.515Z,45
2018-04-30T06:47:42.984Z,40
2018-04-30T06:48:08.488Z,45
2018-04-30T06:48:34.008Z,40
2018-04-30T06:48:59.613Z,50
2018-04-30T06:49:25.125Z,45
2018-04-30T06:49:50.598Z,65
2018-04-30T06:50:16.099Z,65
2018-04-30T06:50:41.630Z,55
2018-04-30T06:51:07.132Z,55
2018-04-30T06:51:32.621Z,65
2018-04-30T06:51:58.160Z,55
2018-04-30T06:52:23.663Z,80
2018-04-30T06:52:49.144Z,80
2018-04-30T06:53:14.643Z,75
2018-04-30T06:53:40.173Z,75
2018-04-30T06:54:05.649Z,60
2018-04-30T06:54:31.126Z,65
2018-04-30T06:54:56.617Z,65
2018-04-30T06:55:22.126Z,70
2018-04-30T06:55:47.713Z,50
2018-04-30T06:56:13.220Z,45
2018-04-30T06:56:38.737Z,60
2018-04-30T06:57:04.206Z,55
2018-04-30T06:57:29.745Z,45
2018-04-30T06:57:55.229Z,45
2018-04-30T06:58:20.723Z,50
2018-04-30T06:58:46.226Z,55
2018-04-30T06:59:11.723Z,50
2018-04-30T06:59:37.234Z,50
2018-04-30T07:00:02.719Z,50
2018-04-30T07:00:28.279Z,50
2018-04-30T07:00:53.691Z,50
2018-04-30T07:01:19.203Z,40
2018-04-30T07:01:44.690Z,55
2018-04-30T07:02:10.170Z,65
2018-04-30T07:02:35.704Z,60
2018-04-30T07:03:01.163Z,45
2018-04-30T07:03:26.660Z,55
2018-04-30T07:03:52.195Z,50
2018-04-30T07:04:17.700Z,45
2018-04-30T07:04:43.199Z,40
2018-04-30T07:05:08.673Z,30
2018-04-30T07:05:34.180Z,30
2018-04-30T07:07:02.771Z,40
2018-04-30T07:07:28.272Z,30
2018-04-30T07:07:53.785Z,25
2018-04-30T07:08:19.279Z,30
2018-04-30T07:08:44.761Z,25
2018-04-30T07:09:10.351Z,20
2018-04-30T07:09:35.971Z,25
2018-04-30T07:10:01.253Z,30
2018-04-30T07:10:26.749Z,45
2018-04-30T07:10:52.253Z,70
2018-04-30T07:11:17.803Z,85
2018-04-30T07:11:43.245Z,120
2018-04-30T07:12:08.742Z,155
2018-04-30T07:12:34.251Z,155
2018-04-30T07:12:59.939Z,190
2018-04-30T07:13:25.356Z,205
2018-04-30T07:13:50.833Z,215
2018-04-30T07:14:16.318Z,160
2018-04-30T07:14:41.802Z,175
2018-04-30T07:15:07.319Z,205
2018-04-30T07:15:32.786Z,220
2018-04-30T07:15:58.337Z,225
2018-04-30T07:16:23.865Z,245
2018-04-30T07:16:49.357Z,230
2018-04-30T07:17:14.827Z,215
2018-04-30T07:17:40.334Z,245
2018-04-30T07:18:05.844Z,230
2018-04-30T07:18:31.405Z,200
2018-04-30T07:18:56.934Z,190
2018-04-30T07:19:22.524Z,165
2018-04-30T07:19:48.050Z,170
2018-04-30T07:20:13.536Z,160
2018-04-30T07:20:39.139Z,135
2018-04-30T07:21:04.742Z,150
2018-04-30T07:21:30.264Z,165
2018-04-30T07:21:55.815Z,160
2018-04-30T07:22:21.358Z,160
2018-04-30T07:22:46.923Z,170
2018-04-30T07:23:12.494Z,175
2018-04-30T07:23:38.022Z,160
2018-04-30T07:24:03.501Z,180
2018-04-30T07:24:29.026Z,155
2018-04-30T07:24:54.602Z,150
2018-04-30T07:26:23.781Z,175
2018-04-30T07:26:49.279Z,180
2018-04-30T07:27:14.787Z,200
2018-04-30T07:27:40.282Z,230
2018-04-30T07:28:05.894Z,230
2018-04-30T07:28:31.317Z,255
2018-04-30T07:28:56.881Z,260
2018-04-30T07:29:22.365Z,260
2018-04-30T07:29:47.971Z,250
2018-04-30T07:30:13.466Z,255
2018-04-30T07:30:39.062Z,270
2018-04-30T07:31:04.593Z,280
2018-04-30T07:31:30.103Z,270
2018-04-30T07:31:55.651Z,275
2018-04-30T07:32:21.199Z,255
2018-04-30T07:32:46.822Z,265
2018-04-30T07:33:12.386Z,290
2018-04-30T07:33:37.964Z,300
2018-04-30T07:34:03.508Z,305
2018-04-30T07:34:29.184Z,270
2018-04-30T07:34:54.691Z,275
2018-04-30T07:35:20.473Z,320
2018-04-30T07:35:46.163Z,295
2018-04-30T07:36:11.741Z,290
2018-04-30T07:36:37.341Z,275
2018-04-30T07:37:02.879Z,290
2018-04-30T07:37:28.413Z,290
2018-04-30T07:37:53.914Z,290
2018-04-30T07:38:19.456Z,285
2018-04-30T07:38:44.922Z,295
2018-04-30T07:39:10.517Z,260
2018-04-30T07:39:36.037Z,210
2018-04-30T07:40:01.662Z,185
2018-04-30T07:40:27.287Z,145
2018-04-30T07:40:52.934Z,120
2018-04-30T07:41:18.532Z,105
2018-04-30T07:41:44.079Z,95
2018-04-30T07:42:09.762Z,75
2018-04-30T07:42:35.403Z,70
2018-04-30T07:43:01.081Z,65
2018-04-30T07:43:26.719Z,55
2018-04-30T07:43:52.349Z,60
2018-04-30T07:44:17.881Z,55
2018-04-30T07:44:43.453Z,55
2018-04-30T07:45:09.132Z,60
2018-04-30T07:45:34.722Z,75
2018-04-30T07:46:00.269Z,75
2018-04-30T07:46:25.875Z,70
2018-04-30T07:46:51.392Z,65
2018-04-30T07:47:16.903Z,75
2018-04-30T07:47:42.474Z,90
2018-04-30T07:48:08.081Z,80
2018-04-30T07:48:33.586Z,80
2018-04-30T07:48:59.130Z,75
2018-04-30T07:49:24.612Z,85
2018-04-30T07:49:50.138Z,75
2018-04-30T07:50:15.675Z,75
2018-04-30T07:50:41.135Z,90
2018-04-30T07:51:06.861Z,115
2018-04-30T07:51:32.456Z,130
2018-04-30T07:51:58.004Z,120
2018-04-30T07:52:23.509Z,85
2018-04-30T07:52:49.064Z,90
2018-04-30T07:53:14.615Z,85
2018-04-30T07:53:40.237Z,95
2018-04-30T07:54:05.825Z,110
2018-04-30T07:54:31.469Z,110
2018-04-30T07:54:56.906Z,95
2018-04-30T07:55:22.471Z,85
2018-04-30T07:55:48.088Z,95
2018-04-30T07:56:13.653Z,90
2018-04-30T07:56:39.213Z,85
2018-04-30T07:57:04.744Z,105
2018-04-30T07:57:30.367Z,110
2018-04-30T07:57:55.971Z,85
2018-04-30T07:58:21.510Z,95
2018-04-30T07:58:47.044Z,140
2018-04-30T07:59:12.629Z,130
2018-04-30T07:59:38.143Z,95
2018-04-30T08:00:03.720Z,75
2018-04-30T08:00:29.246Z,80
2018-04-30T08:00:54.816Z,95
2018-04-30T08:01:20.303Z,75
2018-04-30T08:01:45.954Z,90
2018-04-30T08:02:11.627Z,85
2018-04-30T08:02:37.364Z,85
2018-04-30T08:03:02.965Z,95
2018-04-30T08:03:28.607Z,100
2018-04-30T08:03:54.402Z,100
2018-04-30T08:04:19.916Z,90
2018-04-30T08:04:45.454Z,85
2018-04-30T08:05:11.103Z,80
2018-04-30T08:05:36.687Z,80
2018-04-30T08:06:02.394Z,65
2018-04-30T08:06:27.963Z,55
2018-04-30T08:06:53.515Z,50
2018-04-30T08:07:19.141Z,55
2018-04-30T08:07:44.697Z,60
2018-04-30T08:08:10.351Z,55
2018-04-30T08:08:36.037Z,55
2018-04-30T08:09:01.754Z,55
2018-04-30T08:09:27.337Z,45
2018-04-30T08:09:52.848Z,45
2018-04-30T08:10:18.479Z,50
2018-04-30T08:10:44.054Z,55
2018-04-30T08:11:09.689Z,55
2018-04-30T08:11:35.249Z,50
2018-04-30T08:12:00.863Z,45
2018-04-30T08:12:26.452Z,50
2018-04-30T08:12:51.932Z,50
2018-04-30T08:13:17.515Z,50
2018-04-30T08:13:43.209Z,50
2018-04-30T08:14:08.805Z,55
2018-04-30T08:14:34.463Z,55
2018-04-30T08:15:00.216Z,65
2018-04-30T08:16:29.485Z,75
2018-04-30T08:16:55.034Z,65
2018-04-30T08:17:20.538Z,55
2018-04-30T08:17:46.211Z,50
2018-04-30T08:18:11.737Z,55
2018-04-30T08:18:37.280Z,50
2018-04-30T08:19:02.783Z,50
2018-04-30T08:19:28.286Z,45
2018-04-30T08:19:53.870Z,40
2018-04-30T08:20:19.473Z,50
2018-04-30T08:20:45.101Z,45
2018-04-30T08:21:10.642Z,45
2018-04-30T08:21:36.152Z,50
2018-04-30T08:22:01.599Z,55
2018-04-30T08:22:27.106Z,50
2018-04-30T08:22:52.600Z,50
2018-04-30T08:23:18.101Z,60
2018-04-30T08:23:43.594Z,55
2018-04-30T08:24:09.219Z,45
2018-04-30T08:24:34.695Z,40
2018-04-30T08:25:00.162Z,35
2018-04-30T08:25:25.699Z,40
2018-04-30T08:25:51.177Z,55
2018-04-30T08:26:16.667Z,65
2018-04-30T08:26:42.179Z,80
2018-04-30T08:27:07.678Z,90
2018-04-30T08:27:33.179Z,70
2018-04-30T08:27:58.681Z,60
2018-04-30T08:28:24.174Z,60
2018-04-30T08:28:49.752Z,55
2018-04-30T08:29:15.219Z,55
2018-04-30T08:29:40.720Z,55
2018-04-30T08:30:06.214Z,50
2018-04-30T08:30:31.744Z,45
2018-04-30T08:30:57.221Z,45
2018-04-30T08:31:22.721Z,45
2018-04-30T08:31:48.228Z,50
2018-04-30T08:32:56.775Z,50
2018-04-30T08:33:22.077Z,55
2018-04-30T08:33:47.486Z,55
2018-04-30T08:34:13.002Z,70
2018-04-30T08:35:31.980Z,60
2018-04-30T08:35:57.492Z,65
2018-04-30T08:36:22.977Z,70
2018-04-30T08:36:48.499Z,80
2018-04-30T08:37:13.960Z,75
2018-04-30T08:37:39.471Z,75
2018-04-30T08:38:04.957Z,90
2018-04-30T08:38:30.538Z,90
2018-04-30T08:38:56.041Z,100
2018-04-30T08:39:21.538Z,120
2018-04-30T08:39:47.139Z,130
2018-04-30T08:40:12.649Z,135
2018-04-30T08:40:38.154Z,130
2018-04-30T08:41:03.662Z,110
2018-04-30T08:41:29.160Z,90
2018-04-30T08:41:54.644Z,80
2018-04-30T08:42:20.130Z,90
2018-04-30T08:42:45.646Z,80
2018-04-30T08:43:11.102Z,90
2018-04-30T08:43:36.633Z,120
2018-04-30T08:44:02.088Z,100
2018-04-30T08:44:27.618Z,100
2018-04-30T08:44:53.143Z,105
2018-04-30T08:45:18.633Z,115
2018-04-30T08:45:44.163Z,120
2018-04-30T08:46:09.665Z,125
2018-04-30T08:46:35.215Z,140
2018-04-30T08:47:00.762Z,155
2018-04-30T08:47:26.258Z,180
2018-04-30T08:47:51.809Z,180
2018-04-30T08:48:17.360Z,185
2018-04-30T08:48:42.930Z,150
2018-04-30T08:49:08.447Z,115
2018-04-30T08:49:33.974Z,130
2018-04-30T08:49:59.477Z,150
2018-04-30T08:50:25.005Z,150
2018-04-30T08:50:50.511Z,110
2018-04-30T08:51:16.009Z,75
2018-04-30T08:51:41.549Z,55
2018-04-30T08:52:07.057Z,65
2018-04-30T08:52:32.648Z,65
2018-04-30T08:52:58.241Z,55
2018-04-30T08:53:23.811Z,50
2018-04-30T08:53:49.510Z,45
2018-04-30T08:54:14.940Z,40
2018-04-30T08:54:40.467Z,45
2018-04-30T08:55:05.966Z,50
2018-04-30T08:55:31.509Z,50
2018-04-30T08:55:57.005Z,45
2018-04-30T08:56:22.504Z,40
2018-04-30T08:56:48.001Z,45
2018-04-30T08:57:13.524Z,45
2018-04-30T08:57:39.008Z,60
2018-04-30T08:58:04.477Z,55
2018-04-30T08:58:29.985Z,65
2018-04-30T08:58:55.489Z,75
2018-04-30T08:59:20.995Z,115
2018-04-30T08:59:46.484Z,160
2018-04-30T09:00:11.975Z,160
2018-04-30T09:00:37.557Z,185
2018-04-30T09:01:02.986Z,205
2018-04-30T09:01:28.494Z,210
2018-04-30T09:01:54.015Z,215
2018-04-30T09:02:19.497Z,210
2018-04-30T09:02:44.960Z,220
2018-04-30T09:03:10.462Z,225
2018-04-30T09:03:35.961Z,210
2018-04-30T09:04:01.486Z,235
2018-04-30T09:04:26.990Z,250
2018-04-30T09:04:52.508Z,255
2018-04-30T09:05:17.983Z,255
2018-04-30T09:05:43.457Z,250
2018-04-30T09:06:08.954Z,260
2018-04-30T09:06:34.466Z,260
2018-04-30T09:06:59.943Z,260
2018-04-30T09:07:25.399Z,235
2018-04-30T09:07:50.867Z,220
2018-04-30T09:08:16.402Z,215
2018-04-30T09:08:41.850Z,185
2018-04-30T09:09:07.359Z,210
2018-04-30T09:09:32.839Z,215
2018-04-30T09:09:58.380Z,225
2018-04-30T09:10:23.865Z,240
2018-04-30T09:10:49.381Z,250
2018-04-30T09:12:03.171Z,290
2018-04-30T09:12:28.672Z,300
2018-04-30T09:12:54.152Z,295
2018-04-30T09:13:19.629Z,300
2018-04-30T09:13:45.125Z,315
2018-04-30T09:14:10.638Z,310
2018-04-30T09:14:36.133Z,325
2018-04-30T09:15:01.712Z,320
2018-04-30T09:15:27.138Z,330
2018-04-30T09:15:52.642Z,345
2018-04-30T09:16:18.092Z,355
2018-04-30T09:16:43.611Z,355
2018-04-30T09:17:09.176Z,375
2018-04-30T09:17:34.992Z,390
2018-04-30T09:18:00.658Z,390
2018-04-30T09:18:26.239Z,390
2018-04-30T09:18:52.294Z,375
2018-04-30T09:19:17.757Z,360
2018-04-30T09:19:43.320Z,355
2018-04-30T09:20:09.041Z,360
2018-04-30T09:20:34.645Z,350
2018-04-30T09:21:00.249Z,335
2018-04-30T09:21:25.812Z,330
2018-04-30T09:21:51.536Z,325
2018-04-30T09:22:17.190Z,320
2018-04-30T09:22:42.885Z,310
2018-04-30T09:23:08.567Z,310
2018-04-30T09:23:34.165Z,295
2018-04-30T09:23:59.866Z,295
2018-04-30T09:24:25.438Z,295
2018-04-30T09:24:51.092Z,290
2018-04-30T09:25:16.837Z,275
2018-04-30T09:25:42.478Z,255
2018-04-30T09:26:08.181Z,240
2018-04-30T09:26:33.816Z,235
2018-04-30T09:26:59.460Z,225
2018-04-30T09:27:25.067Z,220
2018-04-30T09:27:50.866Z,220
2018-04-30T09:28:16.828Z,225
2018-04-30T09:28:42.253Z,230
2018-04-30T09:29:08.016Z,240
2018-04-30T09:29:33.440Z,240
2018-04-30T09:29:59.250Z,240
2018-04-30T09:30:24.790Z,240
2018-04-30T09:30:50.350Z,240
2018-04-30T09:31:15.825Z,235
2018-04-30T09:31:41.311Z,230
2018-04-30T09:32:06.802Z,235
2018-04-30T09:32:32.278Z,240
2018-04-30T09:32:57.749Z,255
2018-04-30T09:33:23.213Z,270
2018-04-30T09:33:48.699Z,285
2018-04-30T09:34:14.169Z,305
2018-04-30T09:34:39.681Z,315
2018-04-30T09:35:05.222Z,320
2018-04-30T09:35:30.670Z,315
2018-04-30T09:35:56.162Z,305
2018-04-30T09:36:21.664Z,285
2018-04-30T09:36:47.159Z,275
2018-04-30T09:37:12.681Z,265
2018-04-30T09:37:38.167Z,260
2018-04-30T09:38:03.657Z,255
2018-04-30T09:38:29.200Z,255
2018-04-30T09:38:54.770Z,250
2018-04-30T09:39:20.491Z,245
2018-04-30T09:39:45.972Z,245
2018-04-30T09:40:11.465Z,235
2018-04-30T09:40:36.957Z,225
2018-04-30T09:41:02.431Z,220
2018-04-30T09:41:27.931Z,215
2018-04-30T09:41:53.454Z,205
2018-04-30T09:42:18.902Z,205
2018-04-30T09:42:44.397Z,200
2018-04-30T09:43:09.894Z,195
2018-04-30T09:43:35.401Z,195
2018-04-30T09:44:00.897Z,195
2018-04-30T09:44:26.379Z,190
2018-04-30T09:44:51.945Z,170
2018-04-30T09:45:17.420Z,160
2018-04-30T09:45:42.902Z,155
2018-04-30T09:46:08.491Z,155
2018-04-30T09:46:33.978Z,160
2018-04-30T09:46:59.468Z,165
2018-04-30T09:47:24.934Z,165
2018-04-30T09:47:50.439Z,165
2018-04-30T09:48:15.925Z,165
2018-04-30T09:48:41.410Z,160
2018-04-30T09:49:55.503Z,200
2018-04-30T09:50:21.355Z,240
2018-04-30T09:50:46.959Z,265
2018-04-30T09:51:12.552Z,290
2018-04-30T09:51:38.098Z,300
2018-04-30T09:52:03.597Z,290
2018-04-30T09:52:29.098Z,270
2018-04-30T09:52:54.588Z,255
2018-04-30T09:53:20.065Z,245
2018-04-30T09:53:45.537Z,240
2018-04-30T09:54:11.030Z,240
2018-04-30T09:54:36.537Z,235
2018-04-30T09:55:02.019Z,230
2018-04-30T09:55:27.499Z,225
2018-04-30T09:55:52.985Z,225
2018-04-30T09:56:18.483Z,220
2018-04-30T09:56:43.974Z,220
2018-04-30T09:57:09.536Z,220
2018-04-30T09:58:38.632Z,205
2018-04-30T09:59:04.135Z,200
2018-04-30T09:59:29.629Z,195
2018-04-30T09:59:55.143Z,195
2018-04-30T10:00:20.636Z,195
2018-04-30T10:00:46.144Z,200
2018-04-30T10:01:11.768Z,205
2018-04-30T10:01:37.256Z,210
2018-04-30T10:02:02.798Z,215
2018-04-30T10:02:28.281Z,220
2018-04-30T10:02:53.773Z,225
2018-04-30T10:03:19.304Z,230
2018-04-30T10:03:44.752Z,235
2018-04-30T10:04:10.249Z,240
2018-04-30T10:04:35.754Z,240
2018-04-30T10:05:01.305Z,240
2018-04-30T10:05:26.753Z,240
2018-04-30T10:05:52.225Z,240
2018-04-30T10:06:17.738Z,240
2018-04-30T10:06:43.240Z,235
2018-04-30T10:07:08.733Z,230
2018-04-30T10:07:34.220Z,225
2018-04-30T10:07:59.699Z,225
2018-04-30T10:08:25.301Z,220
2018-04-30T10:08:50.760Z,220
2018-04-30T10:09:16.244Z,220
2018-04-30T10:09:41.769Z,225
2018-04-30T10:10:07.238Z,230
2018-04-30T10:10:32.712Z,235
2018-04-30T10:10:58.196Z,235
2018-04-30T10:11:23.719Z,235
2018-04-30T10:11:49.192Z,230
2018-04-30T10:12:14.675Z,220
2018-04-30T10:12:40.164Z,215
2018-04-30T10:13:05.647Z,205
2018-04-30T10:13:31.162Z,200
2018-04-30T10:13:56.610Z,195
2018-04-30T10:14:22.094Z,195
2018-04-30T10:14:47.623Z,195
2018-04-30T10:15:13.137Z,200
2018-04-30T10:15:38.622Z,200
2018-04-30T10:16:04.111Z,200
2018-04-30T10:16:29.611Z,205
2018-04-30T10:16:55.123Z,205
2018-04-30T10:17:20.640Z,200
2018-04-30T10:17:46.166Z,195
2018-04-30T10:18:11.582Z,185
2018-04-30T10:18:37.068Z,175
2018-04-30T10:19:02.576Z,170
2018-04-30T10:19:28.058Z,155
2018-04-30T10:19:53.622Z,150
2018-04-30T10:20:19.214Z,150